Portada
METAR-TAF:

METAR-TAF

Aeroports :

Aeroport del Comtat de Rowan

Salisbury, Carolina del Nord, Estats Units d'Amèrica

latitud: 35-39N, longitud: 080-31W, altitud: 236 m

Observació

L'informe es va fer fa 17 minuts, a les 21:55 UTC
Vent calma
Temperatura 4°C
Humitat 60%
Pressió 1026 hPa
Visibilitat: 16.1 km
Cel cobert a una alçada de 2000 ft

METAR: KRUQ 142155Z AUTO 00000KT 10SM OVC020 04/M03 A3029 RMK AO2 T00351034

Hora: 17:12 (22:12 UTC)


TAF: manca

Observacions i pronòstics meteorològics de més de 4000 aeroports (METAR i TAF).

Les estacions disponibles són els punts grocs i vermells al mapa.

Posi el ratolí al punt desitjat per veure el nom de l'estació.

Feu clic per veure les observacions i els pronòstics meteorològics.

Per canviar el mapa: feu clic els botons verds amb una creu de color negre per apropar; al botó verd amb un guió per allunyar la imatge; o en les fletxes verdes per a mapes adjacents.


METAR-TAF: